sensor_id;sensor_type;location;lat;lon;timestamp;pressure;altitude;pressure_sealevel;temperature;humidity
3748;BME280;1889;50.058;8.688;2022-08-05T00:01:34;99818.98;;;29.26;41.39
3748;BME280;1889;50.058;8.688;2022-08-05T00:04:03;99824.44;;;28.98;42.10
3748;BME280;1889;50.058;8.688;2022-08-05T00:06:32;99841.09;;;29.03;41.94
3748;BME280;1889;50.058;8.688;2022-08-05T00:09:02;99866.81;;;28.99;41.96
3748;BME280;1889;50.058;8.688;2022-08-05T00:11:31;99905.16;;;28.91;42.18
3748;BME280;1889;50.058;8.688;2022-08-05T00:14:01;99921.77;;;28.35;43.57
3748;BME280;1889;50.058;8.688;2022-08-05T00:16:30;99926.93;;;28.19;44.36
3748;BME280;1889;50.058;8.688;2022-08-05T00:18:59;99933.80;;;27.98;46.02
3748;BME280;1889;50.058;8.688;2022-08-05T00:21:28;99933.61;;;27.96;46.57
3748;BME280;1889;50.058;8.688;2022-08-05T00:23:57;99947.60;;;27.66;48.08
3748;BME280;1889;50.058;8.688;2022-08-05T00:26:27;99934.65;;;27.60;48.33
3748;BME280;1889;50.058;8.688;2022-08-05T00:28:56;99929.16;;;27.31;49.74
3748;BME280;1889;50.058;8.688;2022-08-05T00:31:25;99936.22;;;27.38;49.35
3748;BME280;1889;50.058;8.688;2022-08-05T00:33:54;99953.16;;;27.50;49.28
3748;BME280;1889;50.058;8.688;2022-08-05T00:36:23;99952.87;;;27.43;49.70
3748;BME280;1889;50.058;8.688;2022-08-05T00:38:52;99952.80;;;27.39;49.90
3748;BME280;1889;50.058;8.688;2022-08-05T00:41:31;99962.73;;;27.29;50.33
3748;BME280;1889;50.058;8.688;2022-08-05T00:44:00;99964.77;;;27.21;50.56
3748;BME280;1889;50.058;8.688;2022-08-05T00:46:29;99963.98;;;27.25;50.49
3748;BME280;1889;50.058;8.688;2022-08-05T00:48:58;99947.46;;;27.18;50.86
3748;BME280;1889;50.058;8.688;2022-08-05T00:51:27;99942.05;;;27.18;50.96
3748;BME280;1889;50.058;8.688;2022-08-05T00:53:56;99947.86;;;27.29;50.58
3748;BME280;1889;50.058;8.688;2022-08-05T00:56:25;99948.78;;;27.33;50.39
3748;BME280;1889;50.058;8.688;2022-08-05T00:58:54;99950.92;;;27.30;50.53
3748;BME280;1889;50.058;8.688;2022-08-05T01:01:23;99942.32;;;27.30;50.51
3748;BME280;1889;50.058;8.688;2022-08-05T01:03:52;99935.98;;;27.35;50.32
3748;BME280;1889;50.058;8.688;2022-08-05T01:06:21;99919.56;;;27.43;50.13
3748;BME280;1889;50.058;8.688;2022-08-05T01:08:50;99909.83;;;27.46;49.95
3748;BME280;1889;50.058;8.688;2022-08-05T01:11:26;99916.45;;;27.47;49.86
3748;BME280;1889;50.058;8.688;2022-08-05T01:14:19;99888.53;;;27.62;49.37
3748;BME280;1889;50.058;8.688;2022-08-05T01:19:40;99833.77;;;27.83;47.89
3748;BME280;1889;50.058;8.688;2022-08-05T01:27:58;99835.13;;;27.83;47.24
3748;BME280;1889;50.058;8.688;2022-08-05T01:30:18;99828.47;;;28.01;46.86
3748;BME280;1889;50.058;8.688;2022-08-05T01:32:48;99839.78;;;28.10;46.36
3748;BME280;1889;50.058;8.688;2022-08-05T01:35:21;99844.64;;;28.16;46.18
3748;BME280;1889;50.058;8.688;2022-08-05T01:37:53;99819.85;;;28.21;45.92
3748;BME280;1889;50.058;8.688;2022-08-05T01:40:27;99812.23;;;28.20;45.97
3748;BME280;1889;50.058;8.688;2022-08-05T01:42:58;99829.83;;;28.20;45.93
3748;BME280;1889;50.058;8.688;2022-08-05T01:45:29;99823.84;;;28.17;46.05
3748;BME280;1889;50.058;8.688;2022-08-05T01:48:00;99829.59;;;28.27;45.87
3748;BME280;1889;50.058;8.688;2022-08-05T01:50:37;99838.56;;;28.28;45.86
3748;BME280;1889;50.058;8.688;2022-08-05T01:53:11;99838.75;;;28.30;45.84
3748;BME280;1889;50.058;8.688;2022-08-05T01:55:43;99817.80;;;28.32;45.70
3748;BME280;1889;50.058;8.688;2022-08-05T01:58:14;99814.23;;;28.32;45.67
3748;BME280;1889;50.058;8.688;2022-08-05T02:00:48;99799.56;;;28.34;45.56
3748;BME280;1889;50.058;8.688;2022-08-05T02:03:27;99796.03;;;28.38;45.54
3748;BME280;1889;50.058;8.688;2022-08-05T02:05:52;99797.20;;;28.35;45.69
3748;BME280;1889;50.058;8.688;2022-08-05T02:08:22;99793.79;;;28.33;45.62
3748;BME280;1889;50.058;8.688;2022-08-05T02:10:54;99775.12;;;28.30;45.70
3748;BME280;1889;50.058;8.688;2022-08-05T02:13:27;99763.61;;;28.28;45.79
3748;BME280;1889;50.058;8.688;2022-08-05T02:16:00;99760.33;;;28.25;45.94
3748;BME280;1889;50.058;8.688;2022-08-05T02:19:16;99743.45;;;28.27;46.48
3748;BME280;1889;50.058;8.688;2022-08-05T02:21:17;99748.86;;;28.27;46.76
3748;BME280;1889;50.058;8.688;2022-08-05T02:23:49;99749.11;;;28.10;47.38
3748;BME280;1889;50.058;8.688;2022-08-05T02:26:32;99734.14;;;28.16;47.40
3748;BME280;1889;50.058;8.688;2022-08-05T02:28:54;99738.28;;;28.10;47.59
3748;BME280;1889;50.058;8.688;2022-08-05T02:31:25;99748.00;;;28.03;47.83
3748;BME280;1889;50.058;8.688;2022-08-05T02:33:57;99764.02;;;28.00;47.83
3748;BME280;1889;50.058;8.688;2022-08-05T02:36:27;99783.32;;;28.01;47.85
3748;BME280;1889;50.058;8.688;2022-08-05T02:38:58;99824.41;;;28.01;47.86
3748;BME280;1889;50.058;8.688;2022-08-05T02:41:30;99850.63;;;28.00;47.94
3748;BME280;1889;50.058;8.688;2022-08-05T02:44:00;99865.38;;;27.73;49.35
3748;BME280;1889;50.058;8.688;2022-08-05T02:46:30;99880.94;;;27.46;50.31
3748;BME280;1889;50.058;8.688;2022-08-05T02:49:01;99899.28;;;27.43;50.44
3748;BME280;1889;50.058;8.688;2022-08-05T02:51:31;99900.37;;;27.46;50.12
3748;BME280;1889;50.058;8.688;2022-08-05T02:54:01;99907.18;;;27.55;49.90
3748;BME280;1889;50.058;8.688;2022-08-05T02:56:31;99913.37;;;27.61;49.76
3748;BME280;1889;50.058;8.688;2022-08-05T02:59:01;99908.67;;;27.54;50.03
3748;BME280;1889;50.058;8.688;2022-08-05T03:01:33;99890.45;;;27.41;50.79
3748;BME280;1889;50.058;8.688;2022-08-05T03:04:04;99915.98;;;27.32;51.04
3748;BME280;1889;50.058;8.688;2022-08-05T03:06:35;99930.52;;;27.41;51.17
3748;BME280;1889;50.058;8.688;2022-08-05T03:09:05;99927.91;;;27.45;51.69
3748;BME280;1889;50.058;8.688;2022-08-05T03:11:35;99922.40;;;27.41;52.63
3748;BME280;1889;50.058;8.688;2022-08-05T03:14:04;99918.62;;;27.28;54.20
3748;BME280;1889;50.058;8.688;2022-08-05T03:16:33;99899.83;;;27.02;57.18
3748;BME280;1889;50.058;8.688;2022-08-05T03:19:03;99905.27;;;27.12;56.31
3748;BME280;1889;50.058;8.688;2022-08-05T03:21:32;99893.47;;;27.13;56.63
3748;BME280;1889;50.058;8.688;2022-08-05T03:24:01;99900.25;;;26.98;58.83
3748;BME280;1889;50.058;8.688;2022-08-05T03:26:31;99896.89;;;26.54;60.23
3748;BME280;1889;50.058;8.688;2022-08-05T03:29:00;99900.36;;;26.09;63.65
3748;BME280;1889;50.058;8.688;2022-08-05T03:31:29;99905.11;;;26.11;62.76
3748;BME280;1889;50.058;8.688;2022-08-05T03:33:59;99894.55;;;25.66;66.09
3748;BME280;1889;50.058;8.688;2022-08-05T03:36:28;99868.36;;;25.52;66.54
3748;BME280;1889;50.058;8.688;2022-08-05T03:38:57;99843.89;;;25.75;64.32
3748;BME280;1889;50.058;8.688;2022-08-05T03:41:26;99857.39;;;25.32;68.00
3748;BME280;1889;50.058;8.688;2022-08-05T03:43:55;99880.09;;;25.19;67.66
3748;BME280;1889;50.058;8.688;2022-08-05T03:46:24;99917.84;;;24.96;67.91
3748;BME280;1889;50.058;8.688;2022-08-05T03:48:53;99970.59;;;24.99;67.59
3748;BME280;1889;50.058;8.688;2022-08-05T03:51:27;100026.16;;;24.89;68.08
3748;BME280;1889;50.058;8.688;2022-08-05T03:53:59;100024.97;;;25.09;66.30
3748;BME280;1889;50.058;8.688;2022-08-05T03:56:40;100061.57;;;25.01;66.36
3748;BME280;1889;50.058;8.688;2022-08-05T03:59:24;100053.39;;;24.73;67.60
3748;BME280;1889;50.058;8.688;2022-08-05T04:01:55;100058.92;;;24.77;67.51
3748;BME280;1889;50.058;8.688;2022-08-05T04:04:25;100056.89;;;24.92;66.51
3748;BME280;1889;50.058;8.688;2022-08-05T04:06:55;100056.06;;;25.08;65.33
3748;BME280;1889;50.058;8.688;2022-08-05T04:09:24;100054.84;;;25.23;64.72
3748;BME280;1889;50.058;8.688;2022-08-05T04:11:55;100049.70;;;25.31;64.31
3748;BME280;1889;50.058;8.688;2022-08-05T04:14:27;100034.02;;;25.31;64.41
3748;BME280;1889;50.058;8.688;2022-08-05T04:16:57;100024.95;;;24.98;66.57
3748;BME280;1889;50.058;8.688;2022-08-05T04:19:28;100002.98;;;24.69;69.47
3748;BME280;1889;50.058;8.688;2022-08-05T04:21:57;100002.94;;;24.53;70.34
3748;BME280;1889;50.058;8.688;2022-08-05T04:24:26;99993.03;;;24.59;69.27
3748;BME280;1889;50.058;8.688;2022-08-05T04:26:55;99977.14;;;24.61;69.08
3748;BME280;1889;50.058;8.688;2022-08-05T04:29:24;99987.31;;;24.63;68.85
3748;BME280;1889;50.058;8.688;2022-08-05T04:31:53;99984.84;;;24.60;69.01
3748;BME280;1889;50.058;8.688;2022-08-05T04:34:23;99979.09;;;24.54;69.54
3748;BME280;1889;50.058;8.688;2022-08-05T04:36:52;99969.07;;;24.56;69.32
3748;BME280;1889;50.058;8.688;2022-08-05T04:39:22;99976.52;;;24.52;69.60
3748;BME280;1889;50.058;8.688;2022-08-05T04:41:51;99962.59;;;24.64;68.88
3748;BME280;1889;50.058;8.688;2022-08-05T04:44:20;99972.50;;;24.69;68.67
3748;BME280;1889;50.058;8.688;2022-08-05T04:46:49;99974.47;;;24.84;67.78
3748;BME280;1889;50.058;8.688;2022-08-05T04:49:18;99964.33;;;24.87;67.92
3748;BME280;1889;50.058;8.688;2022-08-05T04:51:47;99959.11;;;24.97;67.34
3748;BME280;1889;50.058;8.688;2022-08-05T04:54:16;99975.73;;;25.07;67.11
3748;BME280;1889;50.058;8.688;2022-08-05T04:56:46;100002.80;;;24.95;67.75
3748;BME280;1889;50.058;8.688;2022-08-05T04:59:15;100012.40;;;24.64;69.34
3748;BME280;1889;50.058;8.688;2022-08-05T05:01:44;100007.91;;;24.87;68.26
3748;BME280;1889;50.058;8.688;2022-08-05T05:04:14;100018.36;;;25.02;67.49
3748;BME280;1889;50.058;8.688;2022-08-05T05:06:43;100009.97;;;24.78;69.10
3748;BME280;1889;50.058;8.688;2022-08-05T05:09:12;100020.66;;;24.50;70.57
3748;BME280;1889;50.058;8.688;2022-08-05T05:11:41;100022.95;;;24.73;69.15
3748;BME280;1889;50.058;8.688;2022-08-05T05:14:10;100037.23;;;24.67;69.64
3748;BME280;1889;50.058;8.688;2022-08-05T05:16:39;100053.59;;;24.53;70.39
3748;BME280;1889;50.058;8.688;2022-08-05T05:19:08;100058.17;;;24.75;68.95
3748;BME280;1889;50.058;8.688;2022-08-05T05:21:37;100059.78;;;24.78;68.81
3748;BME280;1889;50.058;8.688;2022-08-05T05:24:06;100068.83;;;24.82;68.63
3748;BME280;1889;50.058;8.688;2022-08-05T05:26:35;100071.34;;;24.91;68.22
3748;BME280;1889;50.058;8.688;2022-08-05T05:29:04;100070.36;;;24.97;68.15
3748;BME280;1889;50.058;8.688;2022-08-05T05:31:33;100061.94;;;25.02;68.13
3748;BME280;1889;50.058;8.688;2022-08-05T05:34:02;100057.18;;;25.11;67.74
3748;BME280;1889;50.058;8.688;2022-08-05T05:36:31;100067.36;;;25.13;67.86
3748;BME280;1889;50.058;8.688;2022-08-05T05:39:00;100080.21;;;25.26;67.37
3748;BME280;1889;50.058;8.688;2022-08-05T05:41:29;100087.20;;;25.34;66.94
3748;BME280;1889;50.058;8.688;2022-08-05T05:43:59;100077.66;;;25.36;66.98
3748;BME280;1889;50.058;8.688;2022-08-05T05:46:28;100060.73;;;25.39;66.68
3748;BME280;1889;50.058;8.688;2022-08-05T05:48:57;100051.55;;;25.25;67.19
3748;BME280;1889;50.058;8.688;2022-08-05T05:51:26;100061.45;;;25.08;67.63
3748;BME280;1889;50.058;8.688;2022-08-05T05:53:55;100075.80;;;25.31;66.69
3748;BME280;1889;50.058;8.688;2022-08-05T05:56:27;100065.51;;;25.25;67.25
3748;BME280;1889;50.058;8.688;2022-08-05T05:58:56;100069.45;;;25.37;66.56
3748;BME280;1889;50.058;8.688;2022-08-05T06:01:25;100074.45;;;25.42;66.28
3748;BME280;1889;50.058;8.688;2022-08-05T06:03:54;100095.05;;;25.43;66.29
3748;BME280;1889;50.058;8.688;2022-08-05T06:06:23;100095.53;;;25.42;66.67
3748;BME280;1889;50.058;8.688;2022-08-05T06:08:52;100085.85;;;25.34;67.56
3748;BME280;1889;50.058;8.688;2022-08-05T06:11:21;100067.34;;;25.24;67.65
3748;BME280;1889;50.058;8.688;2022-08-05T06:13:50;100045.53;;;25.50;66.55
3748;BME280;1889;50.058;8.688;2022-08-05T06:16:19;100038.93;;;25.65;65.83
3748;BME280;1889;50.058;8.688;2022-08-05T06:18:48;100062.61;;;25.61;65.87
3748;BME280;1889;50.058;8.688;2022-08-05T06:21:17;100049.34;;;25.75;65.21
3748;BME280;1889;50.058;8.688;2022-08-05T06:23:46;100046.23;;;25.91;65.20
3748;BME280;1889;50.058;8.688;2022-08-05T06:26:15;100021.94;;;26.02;64.81
3748;BME280;1889;50.058;8.688;2022-08-05T06:28:45;100010.98;;;26.03;64.60
3748;BME280;1889;50.058;8.688;2022-08-05T06:31:14;100023.13;;;26.09;64.13
3748;BME280;1889;50.058;8.688;2022-08-05T06:33:43;100012.43;;;26.18;63.98
3748;BME280;1889;50.058;8.688;2022-08-05T06:36:12;100008.22;;;26.20;63.98
3748;BME280;1889;50.058;8.688;2022-08-05T06:38:41;100012.52;;;26.28;63.58
3748;BME280;1889;50.058;8.688;2022-08-05T06:41:12;100002.41;;;26.41;63.16
3748;BME280;1889;50.058;8.688;2022-08-05T06:43:41;100020.77;;;26.47;62.97
3748;BME280;1889;50.058;8.688;2022-08-05T06:46:10;100003.06;;;26.54;62.60
3748;BME280;1889;50.058;8.688;2022-08-05T06:48:39;100004.03;;;26.59;62.13
3748;BME280;1889;50.058;8.688;2022-08-05T06:51:08;100017.95;;;26.49;62.25
3748;BME280;1889;50.058;8.688;2022-08-05T06:53:37;100016.40;;;26.41;61.92
3748;BME280;1889;50.058;8.688;2022-08-05T06:56:06;99985.92;;;26.44;62.20
3748;BME280;1889;50.058;8.688;2022-08-05T06:58:35;99988.45;;;26.57;61.96
3748;BME280;1889;50.058;8.688;2022-08-05T07:01:05;99977.11;;;26.63;61.45
3748;BME280;1889;50.058;8.688;2022-08-05T07:03:34;99972.08;;;26.64;60.96
3748;BME280;1889;50.058;8.688;2022-08-05T07:06:03;100005.72;;;26.60;61.18
3748;BME280;1889;50.058;8.688;2022-08-05T07:08:32;100001.83;;;26.53;61.42
3748;BME280;1889;50.058;8.688;2022-08-05T07:11:01;100028.02;;;26.47;62.13
3748;BME280;1889;50.058;8.688;2022-08-05T07:13:33;100041.92;;;26.37;62.91
3748;BME280;1889;50.058;8.688;2022-08-05T07:16:20;100065.52;;;26.29;63.80
3748;BME280;1889;50.058;8.688;2022-08-05T07:19:06;100102.44;;;26.23;64.15
3748;BME280;1889;50.058;8.688;2022-08-05T07:21:35;100100.72;;;26.22;63.99
3748;BME280;1889;50.058;8.688;2022-08-05T07:24:08;100103.55;;;26.20;64.67
3748;BME280;1889;50.058;8.688;2022-08-05T07:26:35;100116.67;;;26.19;64.72
3748;BME280;1889;50.058;8.688;2022-08-05T07:29:04;100128.81;;;26.19;65.04
3748;BME280;1889;50.058;8.688;2022-08-05T07:31:33;100135.84;;;26.05;66.15
3748;BME280;1889;50.058;8.688;2022-08-05T07:34:03;100144.56;;;26.26;65.26
3748;BME280;1889;50.058;8.688;2022-08-05T07:36:32;100158.77;;;26.33;64.96
3748;BME280;1889;50.058;8.688;2022-08-05T07:39:03;100151.75;;;26.36;65.18
3748;BME280;1889;50.058;8.688;2022-08-05T07:41:33;100144.52;;;26.42;64.98
3748;BME280;1889;50.058;8.688;2022-08-05T07:44:04;100135.67;;;26.40;65.24
3748;BME280;1889;50.058;8.688;2022-08-05T07:46:34;100120.45;;;26.39;65.01
3748;BME280;1889;50.058;8.688;2022-08-05T07:49:03;100108.67;;;26.40;64.95
3748;BME280;1889;50.058;8.688;2022-08-05T07:51:35;100117.02;;;26.43;64.96
3748;BME280;1889;50.058;8.688;2022-08-05T07:54:05;100118.77;;;26.27;65.78
3748;BME280;1889;50.058;8.688;2022-08-05T07:56:34;100124.91;;;26.35;65.34
3748;BME280;1889;50.058;8.688;2022-08-05T07:59:03;100121.93;;;26.38;65.18
3748;BME280;1889;50.058;8.688;2022-08-05T08:01:32;100130.91;;;26.33;65.36
3748;BME280;1889;50.058;8.688;2022-08-05T08:04:01;100133.74;;;26.14;65.55
3748;BME280;1889;50.058;8.688;2022-08-05T08:06:30;100122.97;;;26.09;65.52
3748;BME280;1889;50.058;8.688;2022-08-05T08:09:00;100126.77;;;26.06;65.14
3748;BME280;1889;50.058;8.688;2022-08-05T08:11:29;100135.41;;;25.78;65.51
3748;BME280;1889;50.058;8.688;2022-08-05T08:13:58;100128.40;;;25.64;65.26
3748;BME280;1889;50.058;8.688;2022-08-05T08:16:27;100125.09;;;25.66;65.39
3748;BME280;1889;50.058;8.688;2022-08-05T08:18:56;100131.92;;;25.37;66.50
3748;BME280;1889;50.058;8.688;2022-08-05T08:21:25;100137.00;;;25.69;65.07
3748;BME280;1889;50.058;8.688;2022-08-05T08:23:54;100122.27;;;25.84;64.45
3748;BME280;1889;50.058;8.688;2022-08-05T08:26:23;100116.72;;;25.41;65.70
3748;BME280;1889;50.058;8.688;2022-08-05T08:28:52;100117.72;;;25.52;65.84
3748;BME280;1889;50.058;8.688;2022-08-05T08:31:21;100116.13;;;25.43;65.74
3748;BME280;1889;50.058;8.688;2022-08-05T08:33:50;100107.44;;;25.62;65.01
3748;BME280;1889;50.058;8.688;2022-08-05T08:36:19;100106.31;;;25.87;63.98
3748;BME280;1889;50.058;8.688;2022-08-05T08:38:48;100101.88;;;25.97;63.53
3748;BME280;1889;50.058;8.688;2022-08-05T08:41:17;100109.27;;;25.73;63.81
3748;BME280;1889;50.058;8.688;2022-08-05T08:43:47;100108.76;;;25.57;64.00
3748;BME280;1889;50.058;8.688;2022-08-05T08:46:18;100111.45;;;25.34;64.44
3748;BME280;1889;50.058;8.688;2022-08-05T08:48:49;100118.48;;;25.76;63.36
3748;BME280;1889;50.058;8.688;2022-08-05T08:51:20;100126.69;;;25.74;62.75
3748;BME280;1889;50.058;8.688;2022-08-05T08:53:50;100135.86;;;25.89;62.22
3748;BME280;1889;50.058;8.688;2022-08-05T08:56:20;100131.36;;;25.78;62.65
3748;BME280;1889;50.058;8.688;2022-08-05T08:58:50;100128.63;;;25.89;62.14
3748;BME280;1889;50.058;8.688;2022-08-05T09:01:20;100126.30;;;25.90;62.00
3748;BME280;1889;50.058;8.688;2022-08-05T09:03:51;100125.56;;;25.99;61.62
3748;BME280;1889;50.058;8.688;2022-08-05T09:06:20;100133.17;;;25.72;62.28
3748;BME280;1889;50.058;8.688;2022-08-05T09:08:50;100120.91;;;25.90;61.90
3748;BME280;1889;50.058;8.688;2022-08-05T09:11:19;100127.77;;;25.89;61.47
3748;BME280;1889;50.058;8.688;2022-08-05T09:13:48;100124.97;;;25.84;61.33
3748;BME280;1889;50.058;8.688;2022-08-05T09:16:18;100118.81;;;25.99;60.99
3748;BME280;1889;50.058;8.688;2022-08-05T09:18:47;100109.02;;;25.93;60.88
3748;BME280;1889;50.058;8.688;2022-08-05T09:21:18;100101.87;;;26.08;60.23
3748;BME280;1889;50.058;8.688;2022-08-05T09:24:03;100102.72;;;26.03;59.83
3748;BME280;1889;50.058;8.688;2022-08-05T09:26:33;100096.48;;;26.08;59.87
3748;BME280;1889;50.058;8.688;2022-08-05T09:29:05;100098.48;;;25.84;60.12
3748;BME280;1889;50.058;8.688;2022-08-05T09:31:35;100096.03;;;25.81;60.31
3748;BME280;1889;50.058;8.688;2022-08-05T09:34:06;100079.47;;;25.91;59.53
3748;BME280;1889;50.058;8.688;2022-08-05T09:36:48;100073.81;;;26.00;59.16
3748;BME280;1889;50.058;8.688;2022-08-05T09:39:19;100087.17;;;26.01;59.30
3748;BME280;1889;50.058;8.688;2022-08-05T09:41:58;100089.47;;;26.17;58.76
3748;BME280;1889;50.058;8.688;2022-08-05T09:44:45;100100.85;;;26.32;58.35
3748;BME280;1889;50.058;8.688;2022-08-05T09:47:16;100105.85;;;26.36;58.56
3748;BME280;1889;50.058;8.688;2022-08-05T09:49:48;100101.25;;;26.53;58.02
3748;BME280;1889;50.058;8.688;2022-08-05T09:52:20;100098.39;;;26.66;57.74
3748;BME280;1889;50.058;8.688;2022-08-05T09:54:54;100103.62;;;26.73;57.59
3748;BME280;1889;50.058;8.688;2022-08-05T09:57:40;100113.61;;;26.88;57.36
3748;BME280;1889;50.058;8.688;2022-08-05T10:02:46;100108.09;;;26.89;57.01
3748;BME280;1889;50.058;8.688;2022-08-05T10:05:20;100106.44;;;26.51;57.59
3748;BME280;1889;50.058;8.688;2022-08-05T10:07:52;100111.84;;;26.51;57.28
3748;BME280;1889;50.058;8.688;2022-08-05T10:10:30;100102.55;;;26.38;57.85
3748;BME280;1889;50.058;8.688;2022-08-05T10:12:56;100122.54;;;26.68;56.83
3748;BME280;1889;50.058;8.688;2022-08-05T10:15:33;100107.19;;;26.74;56.54
3748;BME280;1889;50.058;8.688;2022-08-05T10:18:06;100105.55;;;26.82;56.14
3748;BME280;1889;50.058;8.688;2022-08-05T10:20:41;100101.13;;;26.76;56.17
3748;BME280;1889;50.058;8.688;2022-08-05T10:23:16;100101.73;;;26.90;55.77
3748;BME280;1889;50.058;8.688;2022-08-05T10:25:45;100105.73;;;26.96;55.64
3748;BME280;1889;50.058;8.688;2022-08-05T10:28:15;100106.97;;;26.92;55.73
3748;BME280;1889;50.058;8.688;2022-08-05T10:30:44;100123.08;;;27.14;54.90
3748;BME280;1889;50.058;8.688;2022-08-05T10:33:13;100127.33;;;27.22;54.86
3748;BME280;1889;50.058;8.688;2022-08-05T10:35:42;100113.69;;;27.39;54.49
3748;BME280;1889;50.058;8.688;2022-08-05T10:38:12;100118.23;;;27.39;54.85
3748;BME280;1889;50.058;8.688;2022-08-05T10:46:03;100126.66;;;27.45;54.99
3748;BME280;1889;50.058;8.688;2022-08-05T10:48:35;100122.91;;;27.37;54.76
3748;BME280;1889;50.058;8.688;2022-08-05T10:51:19;100125.17;;;27.31;53.97
3748;BME280;1889;50.058;8.688;2022-08-05T10:53:54;100132.11;;;26.72;53.35
3748;BME280;1889;50.058;8.688;2022-08-05T10:56:24;100128.52;;;26.82;52.71
3748;BME280;1889;50.058;8.688;2022-08-05T11:01:39;100142.78;;;27.05;51.96
3748;BME280;1889;50.058;8.688;2022-08-05T11:04:12;100142.02;;;26.82;52.71
3748;BME280;1889;50.058;8.688;2022-08-05T11:09:38;100134.73;;;27.56;51.56
3748;BME280;1889;50.058;8.688;2022-08-05T11:15:09;100131.14;;;27.86;50.11
3748;BME280;1889;50.058;8.688;2022-08-05T11:17:39;100139.99;;;27.98;49.01
3748;BME280;1889;50.058;8.688;2022-08-05T11:22:56;100153.36;;;27.90;49.19
3748;BME280;1889;50.058;8.688;2022-08-05T11:25:35;100138.94;;;27.95;48.73
3748;BME280;1889;50.058;8.688;2022-08-05T11:33:33;100165.70;;;28.13;48.34
3748;BME280;1889;50.058;8.688;2022-08-05T11:36:04;100151.95;;;28.10;48.29
3748;BME280;1889;50.058;8.688;2022-08-05T11:41:17;100165.09;;;27.85;49.32
3748;BME280;1889;50.058;8.688;2022-08-05T11:43:58;100159.70;;;27.69;49.55
3748;BME280;1889;50.058;8.688;2022-08-05T11:46:41;100163.81;;;27.64;49.12
3748;BME280;1889;50.058;8.688;2022-08-05T11:49:12;100148.73;;;27.50;49.65
3748;BME280;1889;50.058;8.688;2022-08-05T11:51:43;100143.38;;;27.45;50.02
3748;BME280;1889;50.058;8.688;2022-08-05T11:54:18;100148.11;;;27.88;49.25
3748;BME280;1889;50.058;8.688;2022-08-05T11:56:51;100151.95;;;27.70;49.62
3748;BME280;1889;50.058;8.688;2022-08-05T11:59:25;100160.25;;;27.63;49.88
3748;BME280;1889;50.058;8.688;2022-08-05T12:02:01;100164.81;;;28.03;49.01
3748;BME280;1889;50.058;8.688;2022-08-05T12:04:41;100160.62;;;28.14;48.79
3748;BME280;1889;50.058;8.688;2022-08-05T12:07:16;100153.98;;;28.03;48.54
3748;BME280;1889;50.058;8.688;2022-08-05T12:09:56;100158.12;;;28.07;48.98
3748;BME280;1889;50.058;8.688;2022-08-05T12:12:21;100156.89;;;28.05;48.63
3748;BME280;1889;50.058;8.688;2022-08-05T12:14:51;100155.30;;;27.93;48.73
3748;BME280;1889;50.058;8.688;2022-08-05T12:17:20;100155.44;;;28.32;48.34
3748;BME280;1889;50.058;8.688;2022-08-05T12:19:51;100164.19;;;28.20;48.20
3748;BME280;1889;50.058;8.688;2022-08-05T12:22:25;100169.07;;;28.36;47.82
3748;BME280;1889;50.058;8.688;2022-08-05T12:24:52;100165.72;;;28.47;47.92
3748;BME280;1889;50.058;8.688;2022-08-05T12:27:27;100172.77;;;28.79;47.61
3748;BME280;1889;50.058;8.688;2022-08-05T12:30:07;100164.72;;;29.02;47.16
3748;BME280;1889;50.058;8.688;2022-08-05T12:32:44;100169.84;;;29.05;46.42
3748;BME280;1889;50.058;8.688;2022-08-05T12:35:14;100177.64;;;28.85;47.36
3748;BME280;1889;50.058;8.688;2022-08-05T12:37:45;100176.88;;;29.21;46.89
3748;BME280;1889;50.058;8.688;2022-08-05T12:40:15;100190.36;;;29.46;46.10
3748;BME280;1889;50.058;8.688;2022-08-05T12:42:45;100187.19;;;29.18;46.39
3748;BME280;1889;50.058;8.688;2022-08-05T12:45:14;100197.66;;;28.88;46.77
3748;BME280;1889;50.058;8.688;2022-08-05T12:47:43;100196.83;;;28.53;47.89
3748;BME280;1889;50.058;8.688;2022-08-05T12:50:16;100204.97;;;28.13;48.96
3748;BME280;1889;50.058;8.688;2022-08-05T12:52:57;100199.75;;;28.31;48.82
3748;BME280;1889;50.058;8.688;2022-08-05T12:55:31;100209.11;;;28.02;49.88
3748;BME280;1889;50.058;8.688;2022-08-05T12:58:00;100209.27;;;28.40;49.19
3748;BME280;1889;50.058;8.688;2022-08-05T13:00:29;100225.98;;;27.85;50.44
3748;BME280;1889;50.058;8.688;2022-08-05T13:03:00;100231.56;;;27.62;51.46
3748;BME280;1889;50.058;8.688;2022-08-05T13:05:31;100229.88;;;27.50;51.78
3748;BME280;1889;50.058;8.688;2022-08-05T13:08:02;100234.79;;;27.51;51.92
3748;BME280;1889;50.058;8.688;2022-08-05T13:10:32;100221.91;;;27.54;51.57
3748;BME280;1889;50.058;8.688;2022-08-05T13:13:04;100217.55;;;27.78;50.98
3748;BME280;1889;50.058;8.688;2022-08-05T13:15:34;100220.75;;;27.78;50.99
3748;BME280;1889;50.058;8.688;2022-08-05T13:18:03;100235.38;;;27.81;51.03
3748;BME280;1889;50.058;8.688;2022-08-05T13:20:35;100230.86;;;27.49;51.06
3748;BME280;1889;50.058;8.688;2022-08-05T13:23:04;100225.59;;;28.04;50.08
3748;BME280;1889;50.058;8.688;2022-08-05T13:25:33;100235.61;;;28.29;49.56
3748;BME280;1889;50.058;8.688;2022-08-05T13:28:02;100242.72;;;28.30;49.36
3748;BME280;1889;50.058;8.688;2022-08-05T13:30:33;100250.88;;;28.09;49.37
3748;BME280;1889;50.058;8.688;2022-08-05T13:33:02;100243.31;;;27.88;49.96
3748;BME280;1889;50.058;8.688;2022-08-05T13:35:31;100248.08;;;27.90;49.67
3748;BME280;1889;50.058;8.688;2022-08-05T13:38:00;100256.42;;;27.77;49.50
3748;BME280;1889;50.058;8.688;2022-08-05T13:40:29;100258.58;;;27.83;49.14
3748;BME280;1889;50.058;8.688;2022-08-05T13:42:58;100270.56;;;27.49;49.37
3748;BME280;1889;50.058;8.688;2022-08-05T13:45:27;100265.98;;;27.34;49.97
3748;BME280;1889;50.058;8.688;2022-08-05T13:47:56;100272.65;;;27.30;49.99
3748;BME280;1889;50.058;8.688;2022-08-05T13:50:25;100269.38;;;27.21;49.95
3748;BME280;1889;50.058;8.688;2022-08-05T13:52:56;100272.81;;;27.17;49.81
3748;BME280;1889;50.058;8.688;2022-08-05T13:55:25;100275.95;;;27.02;50.34
3748;BME280;1889;50.058;8.688;2022-08-05T13:57:54;100250.94;;;26.83;50.58
3748;BME280;1889;50.058;8.688;2022-08-05T14:00:23;100235.80;;;26.86;50.66
3748;BME280;1889;50.058;8.688;2022-08-05T14:02:52;100241.83;;;26.95;50.40
3748;BME280;1889;50.058;8.688;2022-08-05T14:05:21;100236.77;;;27.02;50.32
3748;BME280;1889;50.058;8.688;2022-08-05T14:07:50;100245.30;;;26.91;50.88
3748;BME280;1889;50.058;8.688;2022-08-05T14:10:21;100253.64;;;26.77;51.63